Main page
METAR-TAF:

METAR-TAF

Airports :

Bremen Airport

Bremen, Germany

latitude: 53-03N, longitude: 008-48E, elevation: 3 m

Current weather observation

The report was made 24 minutes ago, at 10:50 UTC
Wind 10 kt from the West
Temperature 7°C
Humidity 66%
Pressure 1020 hPa
Visibility 10 km or more
Few clouds at a height of 2400 ft
Broken clouds at a height of 2900 ft

METAR: EDDW 011050Z 27010KT 9999 FEW024 BKN029 07/01 Q1020 NOSIG

Time: 13:14 (11:14 UTC)

Forecast

The report was made 6 hours and 14 minutes ago, at 05:00 UTC
Forecast valid from 01 at 06 UTC to 02 at 06 UTC
Wind 5 kt from the Southwest
Visibility 10 km or more
Scattered clouds at a height of 3000 ft
Becoming
from 01 at 06 UTC to 01 at 08 UTC
Wind 10 kt from the West
Becoming
from 01 at 17 UTC to 01 at 19 UTC
Wind 5 kt from the West/Southwest

TAF: EDDW 010500Z 0106/0206 23005KT 9999 SCT030 BECMG 0106/0108 27010KT BECMG 0117/0119 25005KT

Weather observations and forecasts of more than 4000 airports (METAR and TAF reports).

The available stations are represented by yellow and red dots on the map.

Hover mouse over dot to see the name of the station.

Then click to see weather observations and forecasts.

To change the map : click on the green buttons with a black cross to zoom in, on the green button with a dash to zoom out, or on the green arrows for adjacent maps.


METAR-TAF: